»·PEaware :: XB-1QD KSNA-KAVX

XB-1QD :: KSNA-KAVX

FLIGHT INFORMATION

Flight Status: Arrived
Operator: Privately registered:
Mexico
More flights under this callsign
Pilot: Camilo Q. (19149)
Aircraft: CESSNA 172 SKYHAWK
(C172)
More flights by this aircraft type
Origin: KSNA John Wayne-Orange Co
United States
Destination: KAVX Catalina
United States
More flights between these airports :: More routes between these airports
Route: SLI V21 SXC
File this flight plan on PilotEdge
Remarks: I-7 (probably breaking the record for 17 attempts ever!)
Altitude:
(Current/Filed)
4,000ft
Speed:
(Current/Filed)
120kts
Departed: 16-May-18 10:20 AM
Arrived: 16-May-18 10:51 AM
Distance/Time
Traveled:
32nm/0:31
Distance/Time
To Go:
Arrived

Flight Plot

Page will automatically refresh every two minutes.


Map Options




Map Legend


Flown Route
Filed Route
Departure Airport
Arrival Airport
Navaid (VOR, NDB)
Fix

Horizontal Profiles

Position Reports

Time Latitude Longitude Heading Altitude Ground
Speed
16-May-18 10:02 33.670436 -117.867626 225 60ft 0kts
16-May-18 10:03 33.670436 -117.867626 225 60ft 0kts
16-May-18 10:04 33.670436 -117.867626 225 60ft 0kts
16-May-18 10:05 33.670436 -117.867626 225 60ft 0kts
16-May-18 10:06 33.670436 -117.867626 225 60ft 0kts
16-May-18 10:07 33.670436 -117.867626 225 60ft 0kts
16-May-18 10:08 33.670436 -117.867626 225 60ft 0kts
16-May-18 10:09 33.670436 -117.867626 225 60ft 0kts
16-May-18 10:10 33.670436 -117.867626 225 60ft 0kts
16-May-18 10:11 33.670436 -117.867626 225 60ft 0kts
16-May-18 10:12 33.670436 -117.867626 225 60ft 0kts
16-May-18 10:13 33.670490 -117.867996 309 60ft 6kts
16-May-18 10:14 33.673176 -117.867209 33 60ft 15kts
16-May-18 10:15 33.675694 -117.866099 27 60ft 10kts
16-May-18 10:16 33.678419 -117.864371 28 60ft 9kts
16-May-18 10:17 33.679959 -117.863595 302 60ft 0kts
16-May-18 10:18 33.680077 -117.864196 212 60ft 0kts
16-May-18 10:19 33.680077 -117.864196 212 60ft 0kts
16-May-18 10:20 33.674862 -117.867526 208 80ft 89kts
16-May-18 10:21 33.654575 -117.890354 231 783ft 108kts
16-May-18 10:22 33.636113 -117.918531 232 1477ft 108kts
16-May-18 10:23 33.617240 -117.947304 231 2099ft 109kts
16-May-18 10:24 33.599222 -117.974816 231 2887ft 103kts
16-May-18 10:25 33.581591 -118.001755 231 3685ft 102kts
16-May-18 10:26 33.562060 -118.031527 231 3889ft 119kts
16-May-18 10:27 33.541801 -118.062313 231 3890ft 117kts
16-May-18 10:28 33.521584 -118.093039 232 3890ft 117kts
16-May-18 10:29 33.501646 -118.123318 231 3889ft 117kts
16-May-18 10:30 33.489130 -118.152540 245 3890ft 117kts
16-May-18 10:31 33.475134 -118.187925 243 3890ft 117kts
16-May-18 10:32 33.460558 -118.222954 242 3890ft 117kts
16-May-18 10:33 33.445805 -118.257507 242 3890ft 117kts
16-May-18 10:34 33.430758 -118.292260 242 3890ft 117kts
16-May-18 10:35 33.415680 -118.326913 242 3890ft 117kts
16-May-18 10:36 33.401479 -118.361910 240 3889ft 116kts
16-May-18 10:37 33.396163 -118.397553 306 3884ft 118kts
16-May-18 10:38 33.420072 -118.418326 14 3891ft 117kts
16-May-18 10:39 33.452320 -118.410796 9 3890ft 118kts
16-May-18 10:40 33.485279 -118.404518 8 3658ft 120kts
16-May-18 10:41 33.516634 -118.399225 7 3290ft 105kts
16-May-18 10:42 33.542866 -118.403655 319 3291ft 102kts
16-May-18 10:43 33.565081 -118.425213 346 3286ft 104kts
16-May-18 10:44 33.570372 -118.402625 138 3290ft 103kts
16-May-18 10:45 33.543305 -118.395145 187 3062ft 116kts
16-May-18 10:46 33.510682 -118.400567 187 2567ft 119kts
16-May-18 10:47 33.478415 -118.405625 187 2191ft 111kts
16-May-18 10:48 33.449182 -118.407110 148 2200ft 102kts
16-May-18 10:49 33.430655 -118.397218 168 2887ft 69kts
16-May-18 10:50 33.410060 -118.407053 235 2115ft 98kts
16-May-18 10:51 33.402413 -118.419394 40 1606ft 8kts
16-May-18 10:52 33.403464 -118.416215 113 1606ft 11kts
16-May-18 10:53 33.404560 -118.415105 261 1606ft 4kts
16-May-18 10:54 33.403962 -118.415199 149 1606ft 0kts
16-May-18 10:55 33.403962 -118.415199 149 1606ft 0kts
16-May-18 10:56 33.403962 -118.415199 149 1606ft 0kts
16-May-18 10:57 33.403962 -118.415199 149 1606ft 0kts
16-May-18 10:58 33.403962 -118.415199 149 1606ft 0kts
16-May-18 10:59 33.403962 -118.415199 149 1606ft 0kts
16-May-18 11:00 33.403962 -118.415199 149 1606ft 0kts
16-May-18 11:01 33.403962 -118.415199 149 1606ft 0kts
16-May-18 11:02 33.403962 -118.415199 149 1606ft 0kts
16-May-18 11:03 33.403962 -118.415199 149 1606ft 0kts
16-May-18 11:04 33.403962 -118.415199 149 1606ft 0kts

Navigation Log

Ident Type
1. KSNA Airport
2. SLI Navaid
3. SXC Navaid
4. KAVX Airport